• Join FlightAware (Why Join?)
  • Login
  • US Flag 
02:58PM EDT


 

Airport Tracker/Info


-or-


 

Live Flight TrackerFlight Track Log ✈ N816BG ✈ 23-Jun-2014 ✈ KFNT - KGRR

Flight Track Log - Related Links

Times and Time Zones

All times are in EDT time to prevent confusion due to time zone crossing. See the N816BG flight status page for this flight to view local times or setup timezone preferences in your user account.

Time Position Orientation Groundspeed Altitude Reporting Facility
EDT Latitude Longitude Course Direction KTS MPH feet Rate Location/Type
10:03AM 43.0633 -83.8753 261° West 272 313 8,000  Level Cleveland Center
10:04AM 43.0528 -83.9825 262° West 273 314 8,000  Level Cleveland Center
10:05AM 43.0425 -84.0792 262° West 271 312 8,000  Level Cleveland Center
10:06AM 42.9299 -84.2926 267° West  Level FlightAware Approximate
10:06AM 43.0317 -84.1839 262° West 268 308 8,000  Level Cleveland Center
10:07AM 42.9258 -84.3840 266° West  Level FlightAware Approximate
10:07AM 43.0203 -84.2886 262° West 268 308 8,000  Level Cleveland Center
10:08AM 43.0089 -84.3931 262° West 267 307 8,000  Level Cleveland Center
10:09AM 42.9981 -84.4967 262° West 267 307 8,000  Level Cleveland Center
10:10AM 42.9872 -84.5933 261° West 266 306 8,000  Level Cleveland Center
10:11AM 42.9750 -84.6983 261° West 269 310 8,000 -240 Level Cleveland Center
10:12AM 42.9622 -84.8056 261° West 271 312 7,600 -720 Descending Cleveland Center
10:13AM 42.9389 -84.9042 252° West 265 305 6,600 -780 Descending Cleveland Center
10:14AM 42.9144 -85.0014 251° West 259 298 6,000 -300 Descending Cleveland Center
10:15AM 42.8950 -85.0767 251° West 248 285 6,000  Level Cleveland Center
10:16AM 42.8683 -85.1814 251° West 247 284 6,000  Level Cleveland Center
10:17AM 42.8464 -85.2667 251° West 246 283 6,000  Level Cleveland Center
10:19AM 42.8031 -85.4300 250° West 235 270 6,000  Level Cleveland Center
10:20AM 42.7925 -85.5158 261° West 237 273 6,000 -480 Level Cleveland Center
10:21AM 42.7914 -85.6039 269° West 236 272 5,100 -1,620 Descending Cleveland Center
10:22AM 42.7897 -85.7058 269° West 233 268 2,700 -840 Descending Cleveland Center
10:24AM 42.8536 -85.7347 36° Northeast 194 223 2,500 -120 Descending Cleveland Center
10:25AM 42.8617 -85.6725 80° East 181 208 2,500 -120 Level Cleveland Center
10:26AM 42.8697 -85.6039 81° East 172 198 2,300 -240 Descending Cleveland Center